Time;durP1;ratioP1;P1;durP2;ratioP2;P2;SDS_P1;SDS_P2;PMS_P1;PMS_P2;Temp;Humidity;BMP_temperature;BMP_pressure;BME280_temperature;BME280_humidity;BME280_pressure;Samples;Min_cycle;Max_cycle;Signal;HPM_P1;HPM_P2
2022/10/11 06:27:39;;;;;;;;;2.50;2.50;;;;;12.50;61.15;102324.13;2797623;23;45896;-83
2022/10/11 06:28:50;;;;;;;;;2.75;1.75;;;;;12.48;61.03;102324.16;2391892;28;45436;-84
2022/10/11 06:30:00;;;;;;;;;2.25;2.25;;;;;12.48;60.66;102328.56;2398617;28;45468;-83
2022/10/11 06:31:11;;;;;;;;;4.00;2.50;;;;;12.48;61.07;102326.78;2398434;28;45259;-84
2022/10/11 06:32:22;;;;;;;;;2.00;1.25;;;;;12.48;61.27;102321.53;2399613;28;45463;-84
2022/10/11 06:33:33;;;;;;;;;2.75;2.75;;;;;12.52;60.88;102327.59;2396369;28;45268;-84
2022/10/11 06:34:43;;;;;;;;;3.75;2.75;;;;;12.52;60.94;102332.88;2393291;28;45739;-84
2022/10/11 06:36:03;;;;;;;;;1.75;1.75;;;;;12.57;61.33;102330.16;2397366;28;45284;-84
2022/10/11 06:37:14;;;;;;;;;4.50;2.75;;;;;12.56;61.26;102326.69;2395413;28;50261;-84
2022/10/11 06:38:25;;;;;;;;;3.75;2.00;;;;;12.62;61.08;102327.47;2398298;28;45459;-85
2022/10/11 06:39:35;;;;;;;;;2.00;2.00;;;;;12.64;61.18;102331.84;2400831;28;46118;-84
2022/10/11 06:40:45;;;;;;;;;1.00;1.00;;;;;12.63;60.91;102335.34;2399286;28;44740;-84
2022/10/11 06:41:56;;;;;;;;;2.00;1.00;;;;;12.63;60.75;102330.09;2393790;28;45468;-82
2022/10/11 06:43:06;;;;;;;;;6.50;2.50;;;;;12.60;60.02;102330.13;2400164;28;44842;-82
2022/10/11 06:44:17;;;;;;;;;4.50;2.50;;;;;12.59;60.63;102323.97;2400620;28;45298;-82
2022/10/11 06:45:27;;;;;;;;;1.25;1.00;;;;;12.60;60.60;102331.00;2395765;28;45325;-84
2022/10/11 06:46:37;;;;;;;;;4.00;3.00;;;;;12.62;60.51;102335.41;2392577;28;47538;-83
2022/10/11 06:47:48;;;;;;;;;1.00;1.00;;;;;12.64;60.68;102336.22;2398183;28;45393;-83
2022/10/11 06:48:58;;;;;;;;;2.25;2.00;;;;;12.65;60.65;102335.31;2394228;28;45381;-82
2022/10/11 06:50:08;;;;;;;;;2.00;1.00;;;;;12.66;60.66;102340.59;2397063;28;45366;-82
2022/10/11 06:51:20;;;;;;;;;1.00;1.00;;;;;12.69;61.04;102340.53;2402760;28;46657;-81
2022/10/11 06:52:30;;;;;;;;;2.25;2.00;;;;;12.71;60.31;102343.16;2395787;28;45282;-82
2022/10/11 06:53:41;;;;;;;;;0.75;0.75;;;;;12.70;60.42;102341.41;2398407;28;45245;-83
2022/10/11 06:54:52;;;;;;;;;2.25;2.00;;;;;12.70;60.08;102337.00;2395837;28;44743;-83
2022/10/11 06:56:11;;;;;;;;;4.25;2.00;;;;;12.70;60.47;102336.13;2402866;28;45238;-83
2022/10/11 06:57:22;;;;;;;;;2.75;1.00;;;;;12.70;60.24;102341.41;2393787;28;44614;-83
2022/10/11 06:58:32;;;;;;;;;4.50;1.25;;;;;12.68;60.39;102344.06;2391802;28;46195;-83
2022/10/11 06:59:42;;;;;;;;;3.00;1.00;;;;;12.67;60.19;102342.31;2392768;28;45564;-83
2022/10/11 07:00:53;;;;;;;;;1.50;1.00;;;;;12.68;60.37;102348.47;2399730;28;45384;-83
2022/10/11 07:02:03;;;;;;;;;2.75;1.50;;;;;12.66;60.11;102347.63;2395249;28;45549;-83
2022/10/11 07:03:13;;;;;;;;;2.25;1.00;;;;;12.66;60.67;102345.00;2396180;28;45448;-84
2022/10/11 07:04:26;;;;;;;;;2.25;2.00;;;;;12.67;60.18;102350.22;2396309;28;45218;-83
2022/10/11 07:05:36;;;;;;;;;6.50;1.75;;;;;12.64;60.38;102345.03;2395122;28;45416;-81
2022/10/11 07:06:47;;;;;;;;;2.00;1.00;;;;;12.66;60.63;102342.34;2402879;28;44704;-83
2022/10/11 07:07:57;;;;;;;;;5.25;2.25;;;;;12.68;60.31;102348.47;2399446;28;46356;-83
2022/10/11 07:09:08;;;;;;;;;4.00;2.00;;;;;12.70;60.42;102338.75;2393607;28;44759;-84
2022/10/11 07:10:19;;;;;;;;;3.00;1.75;;;;;12.74;60.46;102351.00;2391841;28;47324;-82
2022/10/11 07:11:29;;;;;;;;;2.00;2.00;;;;;12.74;60.67;102345.72;2395376;28;46438;-83
2022/10/11 07:12:42;;;;;;;;;7.00;1.00;;;;;12.77;60.41;102352.72;2390216;28;47261;-83
2022/10/11 07:13:58;;;;;;;;;3.00;2.00;;;;;12.82;60.35;102353.50;2377368;28;45508;-83
2022/10/11 07:15:09;;;;;;;;;2.00;2.00;;;;;12.81;60.34;102355.31;2393338;28;45571;-83
2022/10/11 07:16:21;;;;;;;;;3.00;1.00;;;;;12.83;60.57;102355.28;2396297;28;45411;-83
2022/10/11 07:17:31;;;;;;;;;4.00;2.00;;;;;12.85;60.96;102352.59;2394463;28;45396;-84
2022/10/11 07:18:41;;;;;;;;;1.75;1.75;;;;;12.86;60.32;102357.00;2399869;28;45207;-83
2022/10/11 07:19:52;;;;;;;;;3.00;1.75;;;;;12.88;60.22;102357.81;2399116;28;45340;-83
2022/10/11 07:21:07;;;;;;;;;1.75;1.75;;;;;12.89;60.30;102362.22;2398962;28;45357;-83
2022/10/11 07:22:17;;;;;;;;;1.00;1.00;;;;;12.91;60.42;102357.78;2397623;28;46467;-83
2022/10/11 07:23:28;;;;;;;;;2.00;2.00;;;;;12.91;60.39;102349.88;2386453;28;45409;-83
2022/10/11 07:24:38;;;;;;;;;3.00;1.00;;;;;12.93;60.16;102363.91;2383395;28;48104;-82
2022/10/11 07:25:53;;;;;;;;;2.75;2.00;;;;;12.93;60.24;102363.91;2392710;28;45369;-83
2022/10/11 07:27:03;;;;;;;;;2.00;2.00;;;;;12.93;60.40;102353.34;2399600;28;46256;-82
2022/10/11 07:28:14;;;;;;;;;2.25;2.00;;;;;12.94;60.27;102357.72;2389299;28;44851;-83
2022/10/11 07:29:24;;;;;;;;;1.00;1.00;;;;;12.99;60.36;102362.94;2393749;28;46077;-83
2022/10/11 07:30:38;;;;;;;;;2.50;2.00;;;;;13.01;59.81;102364.63;2394085;28;45372;-83
2022/10/11 07:31:49;;;;;;;;;6.25;2.00;;;;;13.03;59.92;102368.13;2398191;28;45533;-84
2022/10/11 07:32:59;;;;;;;;;3.00;2.00;;;;;13.03;60.03;102362.84;2387057;28;45319;-84
2022/10/11 07:34:10;;;;;;;;;1.50;1.25;;;;;13.04;59.28;102364.56;2382757;28;47292;-83
2022/10/11 07:35:20;;;;;;;;;3.00;2.00;;;;;13.03;59.49;102365.50;2394275;28;45298;-84
2022/10/11 07:36:31;;;;;;;;;2.75;2.00;;;;;13.03;59.59;102368.13;2390986;28;48011;-84
2022/10/11 07:37:41;;;;;;;;;4.75;2.00;;;;;13.05;60.10;102371.63;2393151;28;46104;-83
2022/10/11 07:38:51;;;;;;;;;3.25;2.00;;;;;13.05;59.21;102368.09;2394291;28;46072;-83
2022/10/11 07:40:02;;;;;;;;;2.00;0.75;;;;;13.02;58.79;102369.03;2396153;28;44818;-83
2022/10/11 07:41:13;;;;;;;;;1.25;1.25;;;;;12.99;58.80;102376.97;2384848;28;47843;-84
2022/10/11 07:42:23;;;;;;;;;3.00;1.00;;;;;12.97;59.10;102375.25;2383743;28;45716;-84
2022/10/11 07:43:35;;;;;;;;;3.00;2.00;;;;;12.95;59.45;102377.94;2393306;28;45335;-84
2022/10/11 07:44:45;;;;;;;;;3.25;2.00;;;;;12.95;59.27;102383.22;2395181;28;45500;-84
2022/10/11 07:45:59;;;;;;;;;3.50;2.00;;;;;12.97;59.56;102385.81;2402538;28;46537;-84
2022/10/11 07:47:09;;;;;;;;;3.50;2.00;;;;;12.96;59.33;102382.34;2399469;28;45236;-83
2022/10/11 07:48:20;;;;;;;;;2.25;2.25;;;;;12.96;59.10;102384.97;2403469;28;46293;-83
2022/10/11 07:49:30;;;;;;;;;2.00;1.50;;;;;12.94;59.40;102379.69;2399759;28;45191;-83
2022/10/11 07:50:41;;;;;;;;;4.25;2.25;;;;;12.97;59.70;102391.97;2397930;28;46545;-84
2022/10/11 07:51:51;;;;;;;;;2.25;1.00;;;;;12.97;59.31;102383.19;2394880;28;45173;-83
2022/10/11 07:53:02;;;;;;;;;3.00;3.00;;;;;12.98;59.27;102388.44;2394315;28;45275;-84
2022/10/11 07:54:12;;;;;;;;;2.50;2.50;;;;;12.99;58.82;102389.34;2395095;28;45212;-84
2022/10/11 07:55:24;;;;;;;;;3.75;1.75;;;;;12.98;59.67;102392.84;2384822;28;47123;-83
2022/10/11 07:56:36;;;;;;;;;4.75;2.75;;;;;12.97;59.33;102389.34;2389168;28;44767;-84
2022/10/11 07:57:46;;;;;;;;;3.25;3.00;;;;;12.99;59.34;102394.59;2394285;28;45421;-84
2022/10/11 07:58:59;;;;;;;;;1.00;1.00;;;;;12.97;59.47;102389.34;2396595;28;44778;-84
2022/10/11 08:00:10;;;;;;;;;3.00;2.00;;;;;12.98;58.94;102396.38;2394715;28;45431;-84
2022/10/11 08:01:20;;;;;;;;;3.00;2.00;;;;;12.99;59.28;102395.47;2403944;28;45254;-83
2022/10/11 08:02:31;;;;;;;;;2.75;1.75;;;;;12.98;59.13;102398.13;2399898;28;45662;-83
2022/10/11 08:03:41;;;;;;;;;4.50;3.00;;;;;12.97;58.76;102396.38;2394841;28;45273;-83
2022/10/11 08:04:52;;;;;;;;;2.25;2.00;;;;;12.97;58.57;102389.34;2396685;28;45498;-84
2022/10/11 08:06:05;;;;;;;;;3.50;2.00;;;;;12.96;59.55;102390.25;2394547;28;45512;-84
2022/10/11 08:07:15;;;;;;;;;3.25;1.75;;;;;12.97;58.31;102389.34;2403960;28;45442;-84
2022/10/11 08:08:26;;;;;;;;;5.25;1.75;;;;;12.98;58.48;102396.38;2399865;28;45435;-83
2022/10/11 08:09:36;;;;;;;;;3.25;0.00;;;;;12.97;58.54;102396.38;2394667;28;45458;-83
2022/10/11 08:10:47;;;;;;;;;4.25;1.25;;;;;12.98;59.18;102393.72;2394633;28;45314;-82
2022/10/11 08:11:57;;;;;;;;;7.50;3.00;;;;;12.98;58.96;102396.38;2384525;28;47298;-82
2022/10/11 08:13:07;;;;;;;;;4.75;1.25;;;;;13.00;58.63;102393.69;2390101;28;45589;-83
2022/10/11 08:14:18;;;;;;;;;4.50;2.00;;;;;13.01;58.34;102393.66;2404100;28;45428;-83
2022/10/11 08:15:28;;;;;;;;;3.00;3.00;;;;;13.00;57.92;102406.91;2400186;28;45215;-83
2022/10/11 08:16:39;;;;;;;;;3.00;1.00;;;;;12.98;58.16;102396.38;2403264;28;46412;-83
2022/10/11 08:17:49;;;;;;;;;2.75;2.00;;;;;12.98;57.66;102393.72;2403509;28;45153;-83
2022/10/11 08:19:01;;;;;;;;;4.75;1.00;;;;;12.98;58.34;102399.00;2393377;28;47701;-83
2022/10/11 08:20:12;;;;;;;;;3.00;2.25;;;;;13.01;58.85;102404.22;2396052;28;45434;-83
2022/10/11 08:21:25;;;;;;;;;4.25;3.25;;;;;13.05;58.77;102412.97;2402433;28;46187;-83
2022/10/11 08:22:35;;;;;;;;;5.50;2.00;;;;;13.07;58.29;102397.09;2399503;28;45325;-83
2022/10/11 08:23:46;;;;;;;;;2.75;2.00;;;;;13.09;58.20;102400.59;2399098;28;45436;-83
2022/10/11 08:24:56;;;;;;;;;6.50;2.75;;;;;13.10;58.01;102402.34;2388976;28;47618;-83
2022/10/11 08:26:08;;;;;;;;;1.75;1.75;;;;;13.12;58.31;102406.69;2387807;28;45540;-83
2022/10/11 08:27:18;;;;;;;;;3.75;3.00;;;;;13.14;58.52;102398.72;2402972;28;45167;-83
2022/10/11 08:28:29;;;;;;;;;2.50;2.25;;;;;13.19;58.56;102407.44;2399834;28;45697;-83
2022/10/11 08:29:39;;;;;;;;;8.25;2.25;;;;;13.21;57.84;102400.38;2394943;28;45172;-83
2022/10/11 08:30:52;;;;;;;;;3.25;2.00;;;;;13.24;58.64;102399.44;2403049;28;45349;-83
2022/10/11 08:32:02;;;;;;;;;3.25;2.00;;;;;13.27;57.82;102410.84;2403653;28;45352;-82
2022/10/11 08:33:12;;;;;;;;;3.50;2.00;;;;;13.30;58.13;102401.13;2397296;28;46088;-83
2022/10/11 08:34:23;;;;;;;;;1.00;1.00;;;;;13.30;57.65;102409.91;2394879;28;45390;-83
2022/10/11 08:35:35;;;;;;;;;8.50;4.00;;;;;13.29;58.13;102402.88;2389000;28;47249;-83
2022/10/11 08:36:47;;;;;;;;;3.50;2.00;;;;;13.32;57.83;102407.25;2386386;28;45418;-83
2022/10/11 08:37:57;;;;;;;;;3.50;2.00;;;;;13.36;58.41;102403.63;2396731;28;46581;-84
2022/10/11 08:39:09;;;;;;;;;2.25;2.25;;;;;13.41;58.14;102403.56;2403682;28;45359;-84
2022/10/11 08:40:21;;;;;;;;;4.00;2.25;;;;;13.44;57.79;102400.84;2403835;28;45372;-84
2022/10/11 08:41:53;;;;;;;;;4.00;2.00;;;;;13.46;58.06;102409.63;2403000;28;45294;-83
2022/10/11 08:43:12;;;;;;;;;3.00;2.00;;;;;13.47;58.05;102401.69;2386481;28;47363;-84
2022/10/11 08:44:35;;;;;;;;;7.50;2.25;;;;;13.52;57.39;102409.53;2397233;28;45968;-83
2022/10/11 08:45:52;;;;;;;;;3.75;2.00;;;;;13.55;57.74;102408.59;2403248;28;45783;-84
2022/10/11 08:47:18;;;;;;;;;3.00;3.00;;;;;13.58;57.66;102405.94;2401214;28;45321;-84
2022/10/11 08:48:28;;;;;;;;;1.25;1.00;;;;;13.63;57.75;102411.13;2397420;28;45556;-84
2022/10/11 08:49:39;;;;;;;;;2.00;2.00;;;;;13.61;56.97;102413.78;2388161;28;44714;-83
2022/10/11 08:50:53;;;;;;;;;6.25;3.00;;;;;13.61;57.93;102403.22;2390577;28;45476;-84
2022/10/11 08:52:21;;;;;;;;;3.00;2.00;;;;;13.65;57.16;102406.69;2395805;28;45344;-83
2022/10/11 08:53:52;;;;;;;;;3.75;2.00;;;;;13.70;57.63;102412.75;2394720;28;45307;-84
2022/10/11 08:55:51;;;;;;;;;1.75;1.50;;;;;13.76;57.48;102417.91;2396678;28;44776;-83
2022/10/11 08:57:04;;;;;;;;;3.00;1.50;;;;;13.81;57.82;102417.81;2385734;28;47371;-83
2022/10/11 08:58:20;;;;;;;;;6.75;2.25;;;;;13.84;58.14;102408.06;2396100;28;45467;-83
2022/10/11 08:59:36;;;;;;;;;3.00;2.00;;;;;13.89;56.57;102415.91;2402451;28;46477;-83
2022/10/11 09:00:51;;;;;;;;;2.75;2.75;;;;;13.87;56.60;102411.53;2392302;28;45330;-83
2022/10/11 09:02:20;;;;;;;;;6.25;3.00;;;;;13.91;57.56;102410.56;2392811;28;46301;-84
2022/10/11 09:03:37;;;;;;;;;3.00;2.00;;;;;13.92;56.40;102415.84;2396086;28;45262;-84
2022/10/11 09:04:52;;;;;;;;;3.00;3.00;;;;;13.94;56.61;102415.81;2402532;28;46647;-84
2022/10/11 09:06:11;;;;;;;;;2.00;2.00;;;;;13.95;56.93;102418.41;2403499;28;45242;-84
2022/10/11 09:07:41;;;;;;;;;0.75;0.75;;;;;13.97;57.14;102420.16;2387512;28;47138;-84
2022/10/11 09:08:54;;;;;;;;;2.50;2.50;;;;;14.01;57.42;102416.53;2389852;28;45171;-84
2022/10/11 09:10:16;;;;;;;;;4.25;2.00;;;;;14.04;57.24;102416.47;2398976;28;45513;-84
2022/10/11 09:11:57;;;;;;;;;2.00;2.00;;;;;14.08;56.90;102418.16;2394314;28;45449;-84
2022/10/11 09:13:11;;;;;;;;;5.25;3.00;;;;;14.10;56.42;102418.97;2399890;28;46355;-83
2022/10/11 09:14:50;;;;;;;;;2.75;2.75;;;;;14.08;56.18;102415.50;2395946;28;45466;-84
2022/10/11 09:16:42;;;;;;;;;4.00;2.00;;;;;14.10;56.96;102416.34;2398659;28;45509;-84
2022/10/11 09:18:14;;;;;;;;;3.25;2.00;;;;;14.12;56.73;102417.22;2396077;28;45385;-84
2022/10/11 09:19:24;;;;;;;;;1.00;1.00;;;;;14.13;56.69;102413.63;2393967;28;46548;-84
2022/10/11 09:20:53;;;;;;;;;2.25;2.25;;;;;14.16;56.42;102418.88;2394487;28;45214;-84
2022/10/11 09:22:16;;;;;;;;;3.50;2.25;;;;;14.16;55.70;102410.94;2385724;28;46147;-84
2022/10/11 09:23:41;;;;;;;;;2.00;2.00;;;;;14.16;56.68;102408.28;2397649;28;45727;-84
2022/10/11 09:25:16;;;;;;;;;2.75;2.75;;;;;14.20;56.62;102413.53;2394075;28;46284;-84
2022/10/11 09:26:36;;;;;;;;;2.00;2.00;;;;;14.22;57.04;102409.06;2391129;28;45418;-84
2022/10/11 09:28:12;;;;;;;;;4.25;3.00;;;;;14.22;56.10;102406.44;2389948;28;46478;-84
2022/10/11 09:29:41;;;;;;;;;2.00;2.00;;;;;14.24;56.25;102409.91;2396481;28;45365;-84
2022/10/11 09:30:54;;;;;;;;;1.25;1.25;;;;;14.21;56.09;102408.19;2403244;28;45503;-84
2022/10/11 09:32:13;;;;;;;;;3.00;3.00;;;;;14.19;55.56;102410.00;2392641;28;45290;-82
2022/10/11 09:33:37;;;;;;;;;1.00;1.00;;;;;14.22;56.53;102414.34;2377459;28;47273;-83
2022/10/11 09:34:58;;;;;;;;;3.25;3.00;;;;;14.19;56.11;102410.00;2388959;28;44728;-83
2022/10/11 09:36:37;;;;;;;;;4.00;2.00;;;;;14.23;56.12;102416.97;2400794;28;45546;-83
2022/10/11 09:38:14;;;;;;;;;3.25;2.25;;;;;14.23;56.60;102408.16;2385047;28;45407;-84
2022/10/11 09:39:30;;;;;;;;;8.00;3.00;;;;;14.24;56.79;102402.84;2393809;28;45647;-83
2022/10/11 09:40:49;;;;;;;;;2.25;2.00;;;;;14.27;56.89;102404.56;2393138;28;45307;-84
2022/10/11 09:42:06;;;;;;;;;1.75;1.25;;;;;14.31;57.19;102406.22;2383382;28;48024;-83
2022/10/11 09:43:17;;;;;;;;;2.25;2.00;;;;;14.33;57.06;102391.19;2387620;28;45179;-84
2022/10/11 09:44:31;;;;;;;;;3.00;2.50;;;;;14.37;56.77;102395.47;2394005;28;45441;-84
2022/10/11 09:45:44;;;;;;;;;5.50;3.00;;;;;14.40;56.39;102410.41;2394157;28;45284;-83
2022/10/11 09:46:56;;;;;;;;;2.00;2.00;;;;;14.41;56.49;102401.59;2383339;28;47159;-84
2022/10/11 09:48:06;;;;;;;;;4.25;4.00;;;;;14.40;56.03;102403.38;2380795;28;45890;-83
2022/10/11 09:49:20;;;;;;;;;4.00;3.00;;;;;14.40;56.10;102394.56;2385145;28;47636;-84
2022/10/11 09:50:32;;;;;;;;;3.00;3.00;;;;;14.43;56.44;102399.78;2392137;28;44675;-84
2022/10/11 09:51:48;;;;;;;;;2.00;2.00;;;;;14.44;56.27;102400.66;2383928;28;47097;-83
2022/10/11 09:53:03;;;;;;;;;4.00;2.75;;;;;14.47;56.37;102398.78;2391479;28;45174;-83
2022/10/11 09:54:14;;;;;;;;;5.00;3.00;;;;;14.48;56.91;102392.59;2393356;28;46402;-84
2022/10/11 09:55:49;;;;;;;;;2.50;2.50;;;;;14.54;56.75;102394.25;2383814;28;45724;-83
2022/10/11 09:56:59;;;;;;;;;3.00;3.00;;;;;14.56;56.79;102388.91;2389531;28;45511;-84
2022/10/11 09:58:22;;;;;;;;;5.00;3.25;;;;;14.60;56.64;102387.94;2393075;28;45186;-84
2022/10/11 09:59:34;;;;;;;;;3.25;3.00;;;;;14.61;56.33;102390.56;2399666;28;46692;-84
2022/10/11 10:00:59;;;;;;;;;5.75;2.25;;;;;14.65;56.53;102391.34;2394095;28;45374;-84
2022/10/11 10:02:15;;;;;;;;;2.75;2.75;;;;;14.69;56.60;102386.84;2385213;28;46926;-84
2022/10/11 10:03:33;;;;;;;;;5.25;4.00;;;;;14.71;56.29;102383.28;2396614;28;45385;-83
2022/10/11 10:04:53;;;;;;;;;3.50;3.00;;;;;14.78;56.74;102383.09;2402834;28;45463;-82
2022/10/11 10:06:25;;;;;;;;;7.25;3.25;;;;;14.83;56.74;102381.22;2401921;28;45326;-83
2022/10/11 10:07:39;;;;;;;;;3.25;3.00;;;;;14.82;56.49;102380.34;2393710;28;46183;-83
2022/10/11 10:08:50;;;;;;;;;4.00;2.00;;;;;14.87;56.33;102380.25;2387150;28;45172;-83
2022/10/11 10:10:23;;;;;;;;;4.25;3.50;;;;;14.90;56.24;102388.13;2393546;28;47890;-83
2022/10/11 10:11:37;;;;;;;;;5.75;3.25;;;;;14.92;56.63;102377.50;2376011;28;45323;-84
2022/10/11 10:12:53;;;;;;;;;3.25;3.00;;;;;14.93;55.78;102385.41;2394235;28;45697;-83
2022/10/11 10:14:04;;;;;;;;;4.00;3.75;;;;;14.95;55.71;102390.66;2394053;28;45347;-82
2022/10/11 10:15:18;;;;;;;;;3.50;3.25;;;;;14.96;56.19;102382.66;2393808;28;45391;-83
2022/10/11 10:16:32;;;;;;;;;3.00;1.75;;;;;15.00;56.61;102382.59;2399429;28;45406;-83
2022/10/11 10:17:50;;;;;;;;;2.50;2.50;;;;;15.03;56.64;102388.69;2392961;28;48611;-83
2022/10/11 10:19:14;;;;;;;;;3.50;3.25;;;;;15.05;55.86;102388.66;2392760;28;45334;-83
2022/10/11 10:20:32;;;;;;;;;9.00;3.00;;;;;15.05;56.29;102389.53;2383090;28;47094;-83
2022/10/11 10:21:45;;;;;;;;;5.00;4.00;;;;;15.09;56.44;102389.44;2393277;28;45303;-84
2022/10/11 10:23:01;;;;;;;;;3.00;3.00;;;;;15.10;55.59;102391.19;2401149;28;45372;-83
2022/10/11 10:24:17;;;;;;;;;5.75;3.00;;;;;15.13;55.64;102394.63;2392396;28;45378;-84
2022/10/11 10:25:34;;;;;;;;;3.75;3.75;;;;;15.14;56.28;102384.88;2389266;28;45934;-84
2022/10/11 10:27:08;;;;;;;;;3.75;3.75;;;;;15.19;57.03;102380.34;2391798;28;45365;-84
2022/10/11 10:28:26;;;;;;;;;4.50;3.25;;;;;15.24;56.89;102377.56;2389500;28;45553;-83
2022/10/11 10:29:36;;;;;;;;;4.50;3.75;;;;;15.27;56.83;102385.44;2396615;28;44723;-83
2022/10/11 10:30:56;;;;;;;;;3.75;2.25;;;;;15.32;56.42;102382.66;2400785;28;45321;-82
2022/10/11 10:32:13;;;;;;;;;4.00;2.75;;;;;15.33;55.86;102384.41;2397587;28;45425;-84
2022/10/11 10:33:28;;;;;;;;;5.00;4.00;;;;;15.38;56.17;102377.22;2398320;28;45443;-83
2022/10/11 10:35:06;;;;;;;;;4.00;3.00;;;;;15.38;55.34;102380.72;2398540;28;45437;-83
2022/10/11 10:36:25;;;;;;;;;2.00;2.00;;;;;15.43;55.44;102379.72;2393480;28;45397;-84
2022/10/11 10:38:06;;;;;;;;;3.00;3.00;;;;;15.41;55.12;102377.97;2387499;28;45354;-84
2022/10/11 10:39:39;;;;;;;;;6.00;3.00;;;;;15.44;54.89;102379.69;2388703;28;46507;-83
2022/10/11 10:41:00;;;;;;;;;3.00;3.00;;;;;15.47;55.10;102384.91;2390278;28;44719;-84
2022/10/11 10:42:15;;;;;;;;;5.00;4.00;;;;;15.49;55.09;102374.25;2400854;28;45442;-83
2022/10/11 10:43:34;;;;;;;;;3.25;2.25;;;;;15.50;55.54;102379.53;2389699;28;45516;-84
2022/10/11 10:44:52;;;;;;;;;6.00;4.00;;;;;15.53;56.03;102366.16;2395115;28;46433;-84
2022/10/11 10:46:44;;;;;;;;;4.00;3.25;;;;;15.57;54.96;102382.00;2398147;28;45628;-84
2022/10/11 10:48:12;;;;;;;;;6.00;4.00;;;;;15.60;55.25;102376.63;2356458;29;45403;-84
2022/10/11 10:49:44;;;;;;;;;2.50;2.25;;;;;15.61;54.91;102379.22;2401310;28;45261;-84
2022/10/11 10:51:00;;;;;;;;;4.25;3.25;;;;;15.63;55.12;102377.38;2393499;28;46671;-84
2022/10/11 10:52:13;;;;;;;;;2.25;2.25;;;;;15.69;55.63;102383.44;2398683;28;44616;-84
2022/10/11 10:53:33;;;;;;;;;5.00;3.00;;;;;15.73;55.36;102375.34;2392049;28;47511;-85
2022/10/11 10:55:06;;;;;;;;;6.25;4.25;;;;;15.77;56.14;102375.25;2397014;28;45305;-84
2022/10/11 10:56:26;;;;;;;;;5.00;2.25;;;;;15.82;55.34;102373.34;2396320;28;45549;-84
2022/10/11 10:58:09;;;;;;;;;4.50;3.50;;;;;15.87;54.52;102366.13;2390072;28;44806;-84
2022/10/11 11:00:01;;;;;;;;;5.00;4.00;;;;;15.87;54.46;102376.75;2395865;28;48180;-83
2022/10/11 11:01:37;;;;;;;;;3.00;2.00;;;;;15.90;54.25;102373.97;2394624;28;45349;-84
2022/10/11 11:03:00;;;;;;;;;3.25;3.25;;;;;15.93;54.81;102370.38;2398460;28;45478;-84
2022/10/11 11:04:29;;;;;;;;;4.25;3.25;;;;;15.95;54.96;102372.06;2393733;28;45309;-84
2022/10/11 11:06:03;;;;;;;;;4.50;4.00;;;;;15.96;53.83;102378.22;2382956;28;46860;-84
2022/10/11 11:07:34;;;;;;;;;4.00;4.00;;;;;15.99;54.81;102370.19;2389528;28;45191;-84
2022/10/11 11:09:14;;;;;;;;;6.50;4.25;;;;;16.02;54.52;102364.81;2395035;28;45818;-85
2022/10/11 11:10:33;;;;;;;;;4.00;1.50;;;;;16.07;54.61;102362.03;2380009;28;45337;-84
2022/10/11 11:11:50;;;;;;;;;2.25;2.00;;;;;16.15;54.65;102373.28;2392593;28;45408;-84
2022/10/11 11:13:18;;;;;;;;;3.50;2.00;;;;;16.14;54.34;102363.59;2392391;28;45275;-84
2022/10/11 11:14:35;;;;;;;;;4.50;2.00;;;;;16.22;54.94;102373.97;2392995;28;46555;-85
2022/10/11 11:16:00;;;;;;;;;3.00;2.75;;;;;16.26;55.05;102366.78;2399629;28;44841;-83
2022/10/11 11:17:29;;;;;;;;;3.00;3.00;;;;;16.32;55.51;102361.28;2394302;28;45464;-82
2022/10/11 11:19:01;;;;;;;;;5.50;3.50;;;;;16.38;55.38;102361.09;2394524;28;45275;-84
2022/10/11 11:20:40;;;;;;;;;4.50;2.25;;;;;16.44;53.33;102370.66;2394804;28;45368;-85
2022/10/11 11:21:56;;;;;;;;;5.50;3.00;;;;;16.49;54.30;102362.53;2401726;28;45272;-85
2022/10/11 11:23:38;;;;;;;;;3.50;2.25;;;;;16.50;52.95;102364.25;2399989;28;46406;-84
2022/10/11 11:25:17;;;;;;;;;5.75;1.50;;;;;16.49;54.03;102358.09;2393705;28;44593;-85
2022/10/11 11:26:41;;;;;;;;;2.50;2.50;;;;;16.51;52.94;102366.00;2355559;28;47976;-85
2022/10/11 11:27:57;;;;;;;;;5.00;3.00;;;;;16.50;52.49;102357.16;2388491;28;45283;-84
2022/10/11 11:29:49;;;;;;;;;2.00;2.00;;;;;16.52;53.04;102357.09;2387333;28;45495;-84
2022/10/11 11:31:17;;;;;;;;;3.25;3.00;;;;;16.52;53.44;102352.66;2373166;28;45256;-84
2022/10/11 11:32:33;;;;;;;;;2.25;2.25;;;;;16.56;53.46;102352.56;2387675;28;46530;-84
2022/10/11 11:33:52;;;;;;;;;3.00;3.00;;;;;16.58;53.30;102356.03;2384266;28;46514;-84
2022/10/11 11:35:13;;;;;;;;;2.25;2.00;;;;;16.58;52.44;102353.41;2384002;28;46180;-86
2022/10/11 11:36:39;;;;;;;;;4.00;3.00;;;;;16.62;53.74;102355.88;2392546;28;45453;-85
2022/10/11 11:37:56;;;;;;;;;3.00;2.00;;;;;16.67;53.71;102355.75;2396761;28;46385;-86
2022/10/11 11:39:15;;;;;;;;;4.00;2.00;;;;;16.71;53.33;102353.88;2393551;28;45372;-84
2022/10/11 11:40:37;;;;;;;;;4.00;4.00;;;;;16.73;52.91;102355.56;2374003;28;47536;-84
2022/10/11 11:41:54;;;;;;;;;5.50;4.00;;;;;16.71;51.98;102346.78;2385305;28;44843;-84
2022/10/11 11:43:35;;;;;;;;;2.75;2.00;;;;;16.75;52.96;102347.53;2387390;28;45307;-84
2022/10/11 11:44:48;;;;;;;;;3.50;2.25;;;;;16.78;52.87;102347.44;2383900;28;44810;-84
2022/10/11 11:46:08;;;;;;;;;3.50;3.50;;;;;16.80;53.93;102342.06;2388925;28;45406;-84
2022/10/11 11:47:39;;;;;;;;;5.00;3.75;;;;;16.87;53.24;102352.41;2373974;28;45254;-84
2022/10/11 11:48:54;;;;;;;;;4.00;4.00;;;;;16.92;53.02;102344.28;2378329;28;47429;-85
2022/10/11 11:50:24;;;;;;;;;2.75;2.75;;;;;16.97;52.61;102341.47;2385301;28;44749;-84
2022/10/11 11:51:41;;;;;;;;;3.50;3.50;;;;;17.00;52.70;102338.72;2375108;28;47133;-84
2022/10/11 11:52:58;;;;;;;;;3.25;3.00;;;;;17.02;52.49;102336.00;2386800;28;45183;-84
2022/10/11 11:54:21;;;;;;;;;4.75;3.50;;;;;17.07;53.03;102336.72;2388880;28;46169;-84
2022/10/11 11:55:41;;;;;;;;;3.00;2.00;;;;;17.08;53.48;102328.72;2385351;28;45440;-84
2022/10/11 11:57:14;;;;;;;;;4.25;3.75;;;;;17.15;53.18;102328.47;2383884;28;45344;-85
2022/10/11 11:58:47;;;;;;;;;4.50;2.00;;;;;17.20;53.24;102326.56;2387744;28;45473;-84
2022/10/11 12:00:12;;;;;;;;;4.00;2.75;;;;;17.21;53.33;102317.69;2387456;28;46848;-84
2022/10/11 12:01:26;;;;;;;;;3.50;3.50;;;;;17.26;52.78;102323.66;2382074;28;45161;-84
2022/10/11 12:03:01;;;;;;;;;3.75;3.75;;;;;17.26;51.33;102323.66;2381565;28;45780;-84
2022/10/11 12:04:49;;;;;;;;;2.00;2.00;;;;;17.28;51.55;102324.50;2382639;28;45311;-83
2022/10/11 12:06:12;;;;;;;;;3.00;2.00;;;;;17.30;51.50;102325.31;2369419;28;46459;-84
2022/10/11 12:07:26;;;;;;;;;4.00;2.00;;;;;17.29;51.51;102320.03;2383649;28;45418;-84
2022/10/11 12:08:37;;;;;;;;;3.75;2.75;;;;;17.31;51.85;102318.19;2380692;28;48304;-84
2022/10/11 12:09:53;;;;;;;;;2.50;2.00;;;;;17.32;51.38;102318.16;2381599;28;45629;-84
2022/10/11 12:11:04;;;;;;;;;3.25;2.75;;;;;17.34;51.07;102323.38;2383647;28;45585;-85
2022/10/11 12:12:36;;;;;;;;;4.00;4.00;;;;;17.38;51.22;102316.19;2389311;28;46870;-84
2022/10/11 12:13:49;;;;;;;;;4.75;2.50;;;;;17.40;51.82;102324.97;2373866;28;47062;-84
2022/10/11 12:15:09;;;;;;;;;4.50;4.50;;;;;17.42;51.47;102310.69;2377654;28;45443;-84
2022/10/11 12:16:21;;;;;;;;;3.00;3.00;;;;;17.41;52.29;102310.72;2386544;28;46108;-83
2022/10/11 12:17:32;;;;;;;;;2.75;2.00;;;;;17.43;52.29;102307.09;2388114;28;45235;-84
2022/10/11 12:18:50;;;;;;;;;4.00;2.00;;;;;17.48;51.53;102308.75;2383465;28;46362;-84
2022/10/11 12:20:19;;;;;;;;;2.50;2.50;;;;;17.52;51.07;102313.88;2385216;28;44803;-84
2022/10/11 12:21:43;;;;;;;;;3.50;2.25;;;;;17.53;51.10;102312.94;2383461;28;45354;-83
2022/10/11 12:23:02;;;;;;;;;2.50;2.25;;;;;17.54;51.14;102312.03;2384826;28;45509;-83
2022/10/11 12:24:18;;;;;;;;;5.00;2.00;;;;;17.56;51.56;102309.31;2391678;28;46161;-83
2022/10/11 12:25:34;;;;;;;;;3.00;2.00;;;;;17.57;51.86;102308.38;2392259;28;44727;-83
2022/10/11 12:26:47;;;;;;;;;2.75;2.75;;;;;17.61;52.71;102301.16;2389836;28;45421;-83
2022/10/11 12:28:00;;;;;;;;;4.75;3.00;;;;;17.64;51.97;102309.88;2379258;28;45542;-82
2022/10/11 12:29:17;;;;;;;;;3.00;3.00;;;;;17.68;51.08;102300.00;2393111;28;45537;-83